Innis, Louisiana
Current Conditions -  °F | °C
As of 3:35 PM on Monday 24 Nov 2014 (Local Time) from KHZR Reporting Station
Clear Clear  
Wind Chill: 62°   Ceiling: Unl
Heat Index: 62°   Visibility: 10mi
Dew Point: 37°   Wind: 12mph
Humidity: 39%   Direction: 320°NW
Pressure: 29.96"   Gusts: 17mph
Location:  30.88°N, 91.68°W
Report Text: KHZR 242135Z AUTO 32010G15KT 10SM CLR 17/03 A2996 RMK AO2 T01660026
Loading
Personal Weather Stations






























Interactive Weather Map New forecast layout! Learn more

10-Day Weather Forecast

Advertisements
Track Severe Weather on mobile